createdAt,value
2022-11-05T00:00:38.753Z,101411.09
2022-11-05T00:03:24.585Z,101412.84
2022-11-05T00:06:12.579Z,101408.47
2022-11-05T00:09:00.349Z,101407.56
2022-11-05T00:11:46.298Z,101410.16
2022-11-05T00:14:32.467Z,101401.41
2022-11-05T00:16:59.483Z,101400.53
2022-11-05T00:19:26.546Z,101392.69
2022-11-05T00:22:12.926Z,101402.34
2022-11-05T00:24:58.737Z,101398.88
2022-11-05T00:27:25.768Z,101405.94
2022-11-05T00:29:52.868Z,101412.97
2022-11-05T00:32:19.940Z,101413.88
2022-11-05T00:34:46.896Z,101428.78
2022-11-05T00:37:13.814Z,101426.16
2022-11-05T00:39:40.853Z,101426.19
2022-11-05T00:42:26.725Z,101417.53
2022-11-05T00:45:03.073Z,101421.03
2022-11-05T00:47:50.857Z,101414.97
2022-11-05T00:50:20.653Z,101426.31
2022-11-05T00:52:56.954Z,101423.75
2022-11-05T00:55:28.468Z,101428.13
2022-11-05T00:57:57.654Z,101422.91
2022-11-05T01:00:28.879Z,101431.63
2022-11-05T01:03:03.011Z,101422.03
2022-11-05T01:05:31.946Z,101429.91
2022-11-05T01:08:01.446Z,101426.41
2022-11-05T01:10:29.271Z,101440.41
2022-11-05T01:12:57.240Z,101441.28
2022-11-05T01:15:24.723Z,101436.91
2022-11-05T01:17:52.482Z,101441.25
2022-11-05T01:20:19.656Z,101443.00
2022-11-05T01:22:46.722Z,101445.63
2022-11-05T01:25:14.029Z,101455.19
2022-11-05T01:27:41.044Z,101454.34
2022-11-05T01:30:09.754Z,101462.19
2022-11-05T01:32:37.780Z,101463.06
2022-11-05T01:35:07.538Z,101457.81
2022-11-05T01:37:36.339Z,101470.91
2022-11-05T01:40:06.776Z,101472.66
2022-11-05T01:42:34.469Z,101473.53
2022-11-05T01:45:12.412Z,101470.03
2022-11-05T01:48:01.398Z,101477.00
2022-11-05T01:50:34.555Z,101479.63
2022-11-05T01:53:36.247Z,101474.41
2022-11-05T01:56:43.262Z,101477.88
2022-11-05T01:59:24.912Z,101485.72
2022-11-05T02:01:53.571Z,101480.50
2022-11-05T02:04:32.474Z,101480.50
2022-11-05T02:07:00.136Z,101488.34
2022-11-05T02:09:41.219Z,101490.97
2022-11-05T02:12:09.942Z,101484.84
2022-11-05T02:14:36.957Z,101473.53
2022-11-05T02:17:37.662Z,101472.66
2022-11-05T02:20:56.217Z,101470.91
2022-11-05T02:23:54.598Z,101473.53
2022-11-05T02:27:25.803Z,101468.28
2022-11-05T02:30:05.192Z,101464.78
2022-11-05T02:33:17.843Z,101466.53
2022-11-05T02:36:03.607Z,101462.16
2022-11-05T02:38:51.165Z,101462.16
2022-11-05T02:42:02.050Z,101456.94
2022-11-05T02:45:21.285Z,101458.69
2022-11-05T02:48:14.203Z,101449.09
2022-11-05T02:51:00.565Z,101451.69
2022-11-05T02:53:44.885Z,101456.91
2022-11-05T02:56:23.983Z,101455.16
2022-11-05T02:58:50.994Z,101463.00
2022-11-05T03:01:18.225Z,101462.09
2022-11-05T03:04:09.433Z,101455.09
2022-11-05T03:07:03.640Z,101463.78
2022-11-05T03:10:07.072Z,101458.56
2022-11-05T03:12:47.739Z,101460.28
2022-11-05T03:15:44.092Z,101457.66
2022-11-05T03:18:42.868Z,101468.09
2022-11-05T03:21:21.825Z,101463.72
2022-11-05T03:24:15.608Z,101468.94
2022-11-05T03:26:54.264Z,101460.25
2022-11-05T03:29:33.520Z,101465.47
2022-11-05T03:32:04.698Z,101452.38
2022-11-05T03:34:38.726Z,101461.09
2022-11-05T03:37:07.767Z,101463.69
2022-11-05T03:39:43.839Z,101468.03
2022-11-05T03:42:17.003Z,101473.25
2022-11-05T03:44:55.352Z,101486.34
2022-11-05T03:47:37.084Z,101480.25
2022-11-05T03:50:17.586Z,101482.00
2022-11-05T03:53:28.141Z,101480.28
2022-11-05T03:56:14.108Z,101484.63
2022-11-05T03:58:44.855Z,101486.34
2022-11-05T04:01:12.604Z,101485.50
2022-11-05T04:03:39.703Z,101494.19
2022-11-05T04:06:27.937Z,101491.56
2022-11-05T04:09:13.619Z,101488.94
2022-11-05T04:11:59.507Z,101487.16
2022-11-05T04:14:26.519Z,101492.34
2022-11-05T04:17:11.712Z,101493.19
2022-11-05T04:20:03.290Z,101500.13
2022-11-05T04:22:54.194Z,101489.66
2022-11-05T04:25:23.211Z,101494.00
2022-11-05T04:28:00.434Z,101493.97
2022-11-05T04:30:27.493Z,101499.19
2022-11-05T04:33:05.112Z,101503.53
2022-11-05T04:35:45.553Z,101492.19
2022-11-05T04:38:17.515Z,101496.53
2022-11-05T04:40:48.210Z,101506.97
2022-11-05T04:43:19.572Z,101501.75
2022-11-05T04:45:46.957Z,101509.56
2022-11-05T04:48:13.947Z,101512.19
2022-11-05T04:50:40.956Z,101516.50
2022-11-05T04:53:08.147Z,101514.75
2022-11-05T04:55:35.471Z,101517.38
2022-11-05T04:58:02.483Z,101522.56
2022-11-05T05:00:29.502Z,101518.19
2022-11-05T05:02:56.593Z,101516.44
2022-11-05T05:05:24.564Z,101526.00
2022-11-05T05:07:51.633Z,101518.16
2022-11-05T05:10:18.798Z,101522.53
2022-11-05T05:12:45.863Z,101523.38
2022-11-05T05:15:13.277Z,101527.75
2022-11-05T05:17:40.401Z,101531.25
2022-11-05T05:20:26.155Z,101535.56
2022-11-05T05:22:58.948Z,101543.44
2022-11-05T05:25:25.952Z,101542.56
2022-11-05T05:27:56.074Z,101542.56
2022-11-05T05:30:23.150Z,101536.53
2022-11-05T05:32:50.202Z,101534.78
2022-11-05T05:35:17.635Z,101529.59
2022-11-05T05:37:44.765Z,101535.72
2022-11-05T05:40:11.880Z,101538.34
2022-11-05T05:42:42.843Z,101541.00
2022-11-05T05:45:12.473Z,101539.25
2022-11-05T05:47:39.751Z,101543.66
2022-11-05T05:50:07.124Z,101539.28
2022-11-05T05:52:34.103Z,101541.06
2022-11-05T05:55:01.161Z,101541.06
2022-11-05T05:57:28.544Z,101540.22
2022-11-05T05:59:55.583Z,101543.69
2022-11-05T06:02:22.890Z,101541.09
2022-11-05T06:04:50.311Z,101541.09
2022-11-05T06:07:17.333Z,101546.34
2022-11-05T06:09:44.468Z,101542.03
2022-11-05T06:12:11.593Z,101546.41
2022-11-05T06:14:38.663Z,101548.16
2022-11-05T06:17:07.649Z,101550.78
2022-11-05T06:19:34.607Z,101546.47
2022-11-05T06:22:01.619Z,101552.53
2022-11-05T06:24:29.589Z,101561.25
2022-11-05T06:26:56.579Z,101554.25
2022-11-05T06:29:23.709Z,101569.06
2022-11-05T06:31:50.638Z,101573.34
2022-11-05T06:34:17.730Z,101582.84
2022-11-05T06:36:44.773Z,101582.78
2022-11-05T06:39:12.961Z,101585.31
2022-11-05T06:42:04.009Z,101580.03
2022-11-05T06:44:27.933Z,101581.69
2022-11-05T06:46:54.951Z,101587.72
2022-11-05T06:49:24.657Z,101586.75
2022-11-05T06:51:52.885Z,101592.81
2022-11-05T06:54:20.043Z,101593.66
2022-11-05T06:56:47.127Z,101587.50
2022-11-05T06:59:14.292Z,101587.50
2022-11-05T07:01:41.348Z,101585.75
2022-11-05T07:04:08.444Z,101596.16
2022-11-05T07:06:37.068Z,101602.25
2022-11-05T07:09:04.888Z,101598.75
2022-11-05T07:11:31.915Z,101599.66
2022-11-05T07:13:59.127Z,101604.88
2022-11-05T07:16:29.908Z,101600.56
2022-11-05T07:18:56.891Z,101605.81
2022-11-05T07:21:23.851Z,101605.00
2022-11-05T07:23:50.884Z,101609.38
2022-11-05T07:26:18.891Z,101607.69
2022-11-05T07:28:46.109Z,101608.63
2022-11-05T07:31:13.156Z,101613.94
2022-11-05T07:33:40.908Z,101608.81
2022-11-05T07:36:08.607Z,101607.16
2022-11-05T07:38:35.663Z,101604.63
2022-11-05T07:41:02.817Z,101614.31
2022-11-05T07:43:29.913Z,101608.34
2022-11-05T07:45:57.028Z,101617.13
2022-11-05T07:48:23.937Z,101612.84
2022-11-05T07:50:53.067Z,101610.31
2022-11-05T07:53:21.174Z,101610.38
2022-11-05T07:55:48.198Z,101612.16
2022-11-05T07:58:15.271Z,101618.31
2022-11-05T08:00:42.440Z,101620.94
2022-11-05T08:03:16.149Z,101627.94
2022-11-05T08:05:47.128Z,101623.59
2022-11-05T08:08:18.355Z,101614.00
2022-11-05T08:10:46.831Z,101621.00
2022-11-05T08:13:14.380Z,101619.28
2022-11-05T08:15:43.157Z,101614.91
2022-11-05T08:18:17.306Z,101621.00
2022-11-05T08:20:46.865Z,101623.63
2022-11-05T08:23:14.414Z,101622.72
2022-11-05T08:25:42.128Z,101621.84
2022-11-05T08:28:12.800Z,101621.81
2022-11-05T08:30:39.962Z,101625.25
2022-11-05T08:33:11.812Z,101620.00
2022-11-05T08:35:40.620Z,101624.31
2022-11-05T08:38:13.558Z,101622.53
2022-11-05T08:40:42.452Z,101625.97
2022-11-05T08:43:12.841Z,101622.41
2022-11-05T08:45:41.373Z,101616.25
2022-11-05T08:48:17.665Z,101626.66
2022-11-05T08:50:47.458Z,101630.06
2022-11-05T08:53:15.829Z,101626.56
2022-11-05T08:55:44.226Z,101625.66
2022-11-05T08:58:15.303Z,101626.53
2022-11-05T09:00:48.610Z,101623.00
2022-11-05T09:03:26.581Z,101626.47
2022-11-05T09:05:53.557Z,101634.31
2022-11-05T09:08:21.886Z,101622.91
2022-11-05T09:10:49.932Z,101635.13
2022-11-05T09:13:19.718Z,101646.50
2022-11-05T09:15:49.746Z,101638.56
2022-11-05T09:18:19.277Z,101635.00
2022-11-05T09:20:47.907Z,101643.75
2022-11-05T09:23:15.631Z,101636.69
2022-11-05T09:25:44.102Z,101640.16
2022-11-05T09:28:21.419Z,101644.47
2022-11-05T09:30:51.676Z,101640.91
2022-11-05T09:33:23.991Z,101641.69
2022-11-05T09:35:52.783Z,101640.75
2022-11-05T09:38:20.064Z,101649.44
2022-11-05T09:40:59.596Z,101651.06
2022-11-05T09:43:38.155Z,101648.41
2022-11-05T09:46:17.427Z,101648.31
2022-11-05T09:48:49.666Z,101646.47
2022-11-05T09:51:23.694Z,101652.50
2022-11-05T09:53:53.684Z,101653.31
2022-11-05T09:56:27.058Z,101655.00
2022-11-05T09:59:05.245Z,101650.53
2022-11-05T10:01:37.888Z,101658.28
2022-11-05T10:04:16.717Z,101664.34
2022-11-05T10:06:59.886Z,101666.03
2022-11-05T10:09:36.897Z,101665.94
2022-11-05T10:12:42.519Z,101664.16
2022-11-05T10:15:09.621Z,101662.38
2022-11-05T10:17:42.183Z,101666.78
2022-11-05T10:20:39.150Z,101669.34
2022-11-05T10:23:12.758Z,101671.91
2022-11-05T10:26:10.404Z,101676.19
2022-11-05T10:28:37.625Z,101665.53
2022-11-05T10:31:10.022Z,101668.00
2022-11-05T10:33:45.808Z,101676.69
2022-11-05T10:36:25.686Z,101665.09
2022-11-05T10:38:58.959Z,101668.50
2022-11-05T10:41:52.676Z,101670.91
2022-11-05T10:44:34.664Z,101669.00
2022-11-05T10:47:29.633Z,101667.25
2022-11-05T10:50:03.745Z,101669.75
2022-11-05T10:53:33.959Z,101669.53
2022-11-05T10:56:01.131Z,101669.34
2022-11-05T10:58:34.762Z,101670.03
2022-11-05T11:01:12.159Z,101665.38
2022-11-05T11:03:52.716Z,101665.16
2022-11-05T11:06:32.495Z,101668.44
2022-11-05T11:09:05.014Z,101664.81
2022-11-05T11:11:40.576Z,101668.25
2022-11-05T11:14:14.626Z,101672.53
2022-11-05T11:16:48.237Z,101674.19
2022-11-05T11:19:37.276Z,101669.66
2022-11-05T11:22:04.120Z,101676.56
2022-11-05T11:24:42.779Z,101672.19
2022-11-05T11:27:34.020Z,101670.44
2022-11-05T11:30:03.801Z,101671.34
2022-11-05T11:32:40.097Z,101672.22
2022-11-05T11:35:21.290Z,101674.03
2022-11-05T11:37:52.054Z,101666.06
2022-11-05T11:40:30.841Z,101669.59
2022-11-05T11:43:05.649Z,101667.91
2022-11-05T11:45:49.581Z,101667.06
2022-11-05T11:48:24.575Z,101667.06
2022-11-05T11:50:52.027Z,101667.91
2022-11-05T11:53:30.409Z,101659.88
2022-11-05T11:56:00.384Z,101661.56
2022-11-05T11:58:50.896Z,101662.31
2022-11-05T12:01:54.029Z,101658.66
2022-11-05T12:04:58.252Z,101660.25
2022-11-05T12:07:49.291Z,101668.16
2022-11-05T12:10:28.954Z,101663.66
2022-11-05T12:13:20.776Z,101677.59
2022-11-05T12:16:35.534Z,101672.25
2022-11-05T12:19:40.447Z,101664.38
2022-11-05T12:22:29.403Z,101656.44
2022-11-05T12:25:57.830Z,101657.31
2022-11-05T12:29:16.645Z,101656.50
2022-11-05T12:32:11.164Z,101646.91
2022-11-05T12:35:05.679Z,101652.25
2022-11-05T12:37:38.603Z,101654.94
2022-11-05T12:40:37.719Z,101655.81
2022-11-05T12:43:24.185Z,101649.72
2022-11-05T12:46:14.644Z,101662.00
2022-11-05T12:49:01.072Z,101657.53
2022-11-05T12:51:46.759Z,101651.19
2022-11-05T12:54:58.953Z,101639.59
2022-11-05T12:57:41.383Z,101632.34
2022-11-05T13:00:10.564Z,101631.44
2022-11-05T13:03:40.653Z,101619.06
2022-11-05T13:06:21.433Z,101620.75
2022-11-05T13:09:12.934Z,101613.69
2022-11-05T13:11:58.729Z,101610.06
2022-11-05T13:14:52.972Z,101613.53
2022-11-05T13:17:32.040Z,101605.59
2022-11-05T13:20:19.794Z,101607.41
2022-11-05T13:22:55.217Z,101600.50
2022-11-05T13:25:31.992Z,101599.75
2022-11-05T13:28:23.499Z,101600.72
2022-11-05T13:30:57.838Z,101600.72
2022-11-05T13:33:34.292Z,101587.63
2022-11-05T13:37:15.095Z,101597.25
2022-11-05T13:39:56.401Z,101591.16
2022-11-05T13:42:36.422Z,101592.91
2022-11-05T13:45:09.226Z,101577.19
2022-11-05T13:48:22.989Z,101570.16
2022-11-05T13:50:56.271Z,101571.16
2022-11-05T13:53:59.050Z,101566.78
2022-11-05T13:57:11.908Z,101562.47
2022-11-05T14:00:03.696Z,101560.81
2022-11-05T14:03:14.856Z,101560.00
2022-11-05T14:05:43.309Z,101553.09
2022-11-05T14:08:19.996Z,101558.38
2022-11-05T14:11:14.565Z,101566.19
2022-11-05T14:13:45.458Z,101558.25
2022-11-05T14:16:23.260Z,101563.44
2022-11-05T14:19:18.142Z,101558.09
2022-11-05T14:21:47.742Z,101564.31
2022-11-05T14:24:27.076Z,101561.69
2022-11-05T14:27:03.517Z,101564.28
2022-11-05T14:29:43.068Z,101561.69
2022-11-05T14:32:27.572Z,101562.59
2022-11-05T14:35:02.331Z,101562.66
2022-11-05T14:37:41.890Z,101562.66
2022-11-05T14:40:43.590Z,101554.78
2022-11-05T14:43:14.607Z,101558.38
2022-11-05T14:45:55.468Z,101559.22
2022-11-05T14:48:50.193Z,101562.75
2022-11-05T14:51:35.739Z,101566.28
2022-11-05T14:54:36.757Z,101558.44
2022-11-05T14:57:05.127Z,101552.44
2022-11-05T14:59:52.644Z,101542.88
2022-11-05T15:02:38.194Z,101548.25
2022-11-05T15:05:38.521Z,101552.84
2022-11-05T15:08:26.602Z,101555.72
2022-11-05T15:11:02.460Z,101556.81
2022-11-05T15:13:49.753Z,101562.19
2022-11-05T15:16:34.461Z,101553.59
2022-11-05T15:19:03.187Z,101557.25
2022-11-05T15:21:36.412Z,101552.97
2022-11-05T15:24:04.717Z,101554.00
2022-11-05T15:27:05.236Z,101558.53
2022-11-05T15:29:33.844Z,101555.19
2022-11-05T15:32:02.127Z,101557.97
2022-11-05T15:34:33.416Z,101555.41
2022-11-05T15:37:26.299Z,101561.66
2022-11-05T15:39:55.727Z,101560.88
2022-11-05T15:42:27.780Z,101558.28
2022-11-05T15:45:00.162Z,101559.22
2022-11-05T15:47:34.577Z,101540.84
2022-11-05T15:50:14.049Z,101548.91
2022-11-05T15:52:53.478Z,101544.59
2022-11-05T15:55:25.444Z,101545.59
2022-11-05T15:58:00.162Z,101550.00
2022-11-05T16:00:34.021Z,101550.09
2022-11-05T16:03:13.331Z,101551.94
2022-11-05T16:05:47.249Z,101555.50
2022-11-05T16:08:24.744Z,101562.53
2022-11-05T16:11:00.477Z,101546.75
2022-11-05T16:13:41.276Z,101550.25
2022-11-05T16:16:14.617Z,101549.41
2022-11-05T16:18:44.268Z,101551.22
2022-11-05T16:21:18.975Z,101551.28
2022-11-05T16:23:58.862Z,101546.88
2022-11-05T16:29:35.604Z,101543.38
2022-11-05T16:32:33.649Z,101546.00
2022-11-05T16:35:05.312Z,101550.44
2022-11-05T16:37:46.335Z,101541.59
2022-11-05T16:40:19.322Z,101552.97
2022-11-05T16:42:48.579Z,101545.97
2022-11-05T16:45:21.499Z,101538.03
2022-11-05T16:47:49.228Z,101533.66
2022-11-05T16:50:27.191Z,101533.69
2022-11-05T16:52:54.564Z,101537.22
2022-11-05T16:55:22.273Z,101532.88
2022-11-05T16:57:54.535Z,101538.16
2022-11-05T17:00:24.208Z,101532.91
2022-11-05T17:02:52.859Z,101531.13
2022-11-05T17:05:34.340Z,101539.03
2022-11-05T17:08:03.571Z,101535.56
2022-11-05T17:10:31.317Z,101539.03
2022-11-05T17:12:58.864Z,101532.97
2022-11-05T17:15:35.775Z,101532.91
2022-11-05T17:18:06.045Z,101533.84
2022-11-05T17:20:48.540Z,101530.31
2022-11-05T17:23:20.347Z,101539.13
2022-11-05T17:25:52.212Z,101542.66
2022-11-05T17:28:19.914Z,101541.78
2022-11-05T17:30:52.855Z,101541.75
2022-11-05T17:33:23.255Z,101544.38
2022-11-05T17:35:51.859Z,101546.16
2022-11-05T17:38:25.211Z,101547.03
2022-11-05T17:40:53.287Z,101548.75
2022-11-05T17:43:20.618Z,101546.22
2022-11-05T17:45:51.944Z,101540.94
2022-11-05T17:48:20.949Z,101541.78
2022-11-05T17:50:50.547Z,101549.72
2022-11-05T17:53:19.426Z,101548.84
2022-11-05T17:55:47.548Z,101541.84
2022-11-05T17:58:15.409Z,101534.81
2022-11-05T18:00:43.870Z,101541.88
2022-11-05T18:03:12.482Z,101537.50
2022-11-05T18:05:41.542Z,101541.84
2022-11-05T18:08:09.574Z,101533.97
2022-11-05T18:10:38.995Z,101537.50
2022-11-05T18:13:09.182Z,101539.28
2022-11-05T18:15:40.866Z,101547.19
2022-11-05T18:18:08.833Z,101555.03
2022-11-05T18:20:37.491Z,101561.16
2022-11-05T18:23:04.642Z,101551.50
2022-11-05T18:25:31.721Z,101549.69
2022-11-05T18:27:58.719Z,101556.72
2022-11-05T18:30:27.054Z,101562.81
2022-11-05T18:32:54.060Z,101561.94
2022-11-05T18:35:21.075Z,101556.63
2022-11-05T18:37:48.129Z,101561.00
2022-11-05T18:40:15.350Z,101550.44
2022-11-05T18:42:42.643Z,101553.94
2022-11-05T18:45:10.854Z,101545.16
2022-11-05T18:47:37.918Z,101545.16
2022-11-05T18:50:07.801Z,101539.03
2022-11-05T18:52:36.102Z,101535.50
2022-11-05T18:55:03.421Z,101535.50
2022-11-05T18:57:32.686Z,101540.78
2022-11-05T18:59:59.835Z,101535.50
2022-11-05T19:02:27.201Z,101534.63
2022-11-05T19:07:41.555Z,101541.72
2022-11-05T19:10:09.465Z,101537.28
2022-11-05T19:12:36.473Z,101532.97
2022-11-05T19:15:04.961Z,101537.34
2022-11-05T19:17:34.845Z,101533.84
2022-11-05T19:20:02.438Z,101528.59
2022-11-05T19:22:29.623Z,101517.19
2022-11-05T19:24:56.614Z,101522.50
2022-11-05T19:27:23.752Z,101530.41
2022-11-05T19:29:51.173Z,101526.03
2022-11-05T19:32:18.212Z,101526.03
2022-11-05T19:34:45.306Z,101534.81
2022-11-05T19:37:12.421Z,101526.03
2022-11-05T19:39:41.127Z,101527.78
2022-11-05T19:42:08.103Z,101526.06
2022-11-05T19:44:35.159Z,101527.84
2022-11-05T19:47:02.205Z,101534.91
2022-11-05T19:49:29.243Z,101530.56
2022-11-05T19:51:56.283Z,101537.59
2022-11-05T19:54:23.427Z,101530.59
2022-11-05T19:56:51.807Z,101526.25
2022-11-05T19:59:19.299Z,101522.78
2022-11-05T20:01:46.615Z,101528.09
2022-11-05T20:04:13.806Z,101531.63
2022-11-05T20:06:41.010Z,101528.13
2022-11-05T20:09:22.091Z,101525.47
2022-11-05T20:11:54.487Z,101507.09
2022-11-05T20:14:25.057Z,101495.75
2022-11-05T20:16:53.323Z,101494.13
2022-11-05T20:19:22.436Z,101499.53
2022-11-05T20:21:50.704Z,101504.91
2022-11-05T20:24:25.459Z,101502.38
2022-11-05T20:26:55.074Z,101496.31
2022-11-05T20:29:26.057Z,101506.94
2022-11-05T20:31:55.119Z,101515.78
2022-11-05T20:34:22.158Z,101492.19
2022-11-05T20:36:49.290Z,101496.63
2022-11-05T20:39:17.683Z,101502.78
2022-11-05T20:41:44.707Z,101505.41
2022-11-05T20:44:12.981Z,101515.03
2022-11-05T20:46:40.159Z,101515.94
2022-11-05T20:49:09.949Z,101509.78
2022-11-05T20:51:38.085Z,101514.16
2022-11-05T20:54:05.650Z,101514.16
2022-11-05T20:56:37.402Z,101517.59
2022-11-05T20:59:05.805Z,101517.59
2022-11-05T21:01:34.371Z,101514.97
2022-11-05T21:04:03.102Z,101521.06
2022-11-05T21:06:31.431Z,101520.19
2022-11-05T21:08:58.682Z,101527.19
2022-11-05T21:11:49.946Z,101520.16
2022-11-05T21:14:18.015Z,101505.25
2022-11-05T21:16:45.053Z,101502.63
2022-11-05T21:19:12.079Z,101494.72
2022-11-05T21:21:41.229Z,101489.47
2022-11-05T21:24:08.497Z,101494.72
2022-11-05T21:26:35.466Z,101507.00
2022-11-05T21:29:02.545Z,101512.28
2022-11-05T21:31:29.626Z,101520.16
2022-11-05T21:33:56.659Z,101514.03
2022-11-05T21:36:23.637Z,101520.16
2022-11-05T21:38:50.718Z,101513.97
2022-11-05T21:41:19.814Z,101517.44
2022-11-05T21:43:46.831Z,101508.69
2022-11-05T21:46:13.940Z,101517.41
2022-11-05T21:48:41.183Z,101525.31
2022-11-05T21:51:29.291Z,101519.13
2022-11-05T21:54:14.974Z,101510.38
2022-11-05T21:57:05.987Z,101504.22
2022-11-05T21:59:48.585Z,101494.59
2022-11-05T22:02:22.405Z,101494.59
2022-11-05T22:04:53.439Z,101488.47
2022-11-05T22:07:28.997Z,101495.47
2022-11-05T22:09:56.544Z,101482.38
2022-11-05T22:12:24.971Z,101477.16
2022-11-05T22:14:52.496Z,101483.41
2022-11-05T22:17:20.773Z,101477.38
2022-11-05T22:19:47.916Z,101462.56
2022-11-05T22:22:15.031Z,101475.78
2022-11-05T22:24:44.265Z,101464.50
2022-11-05T22:27:18.057Z,101463.69
2022-11-05T22:29:46.102Z,101462.00
2022-11-05T22:32:14.302Z,101462.94
2022-11-05T22:34:42.490Z,101452.50
2022-11-05T22:37:12.431Z,101455.16
2022-11-05T22:39:39.619Z,101455.19
2022-11-05T22:42:08.910Z,101459.59
2022-11-05T22:44:36.782Z,101460.50
2022-11-05T22:47:04.025Z,101450.91
2022-11-05T22:49:31.455Z,101457.84
2022-11-05T22:51:59.899Z,101451.75
2022-11-05T22:54:26.925Z,101462.25
2022-11-05T22:56:53.891Z,101458.78
2022-11-05T22:59:21.050Z,101461.47
2022-11-05T23:01:48.279Z,101462.38
2022-11-05T23:04:16.221Z,101453.59
2022-11-05T23:07:02.340Z,101449.25
2022-11-05T23:09:53.417Z,101444.88
2022-11-05T23:12:37.946Z,101451.88
2022-11-05T23:15:07.984Z,101450.97
2022-11-05T23:17:54.795Z,101446.59
2022-11-05T23:20:42.036Z,101435.22
2022-11-05T23:23:31.661Z,101451.00
2022-11-05T23:26:21.016Z,101440.53
2022-11-05T23:28:48.061Z,101428.31
2022-11-05T23:31:33.949Z,101424.84
2022-11-05T23:34:00.994Z,101420.50
2022-11-05T23:36:46.769Z,101424.00
2022-11-05T23:39:13.774Z,101419.66
2022-11-05T23:41:59.318Z,101414.41
2022-11-05T23:44:44.694Z,101400.44
2022-11-05T23:47:30.544Z,101403.03
2022-11-05T23:49:57.530Z,101409.19
2022-11-05T23:52:24.518Z,101410.03
2022-11-05T23:54:51.454Z,101406.50
2022-11-05T23:57:18.459Z,101414.38
2022-11-05T23:59:45.445Z,101421.41
